Time;durP1;ratioP1;P1;durP2;ratioP2;P2;SDS_P1;SDS_P2;PMS_P1;PMS_P2;Temp;Humidity;BMP_temperature;BMP_pressure;BME280_temperature;BME280_humidity;BME280_pressure;Samples;Min_cycle;Max_cycle;Signal;HPM_P1;HPM_P2
2021/12/22 00:02:13;;;;;;;15.15;8.30;;;0.70;99.90;;;;;;5038561;28;20177;-74
2021/12/22 00:04:44;;;;;;;9.65;5.78;;;0.60;99.90;;;;;;5049155;28;20169;-74
2021/12/22 00:07:11;;;;;;;15.15;6.63;;;0.60;99.90;;;;;;5049089;28;20185;-74
2021/12/22 00:09:37;;;;;;;12.48;6.65;;;0.60;99.90;;;;;;5048806;28;20158;-74
2021/12/22 00:12:04;;;;;;;13.20;5.88;;;0.60;99.90;;;;;;5048916;28;20257;-74
2021/12/22 00:14:30;;;;;;;14.93;6.72;;;0.60;99.90;;;;;;5049215;28;20161;-74
2021/12/22 00:16:55;;;;;;;13.68;6.78;;;0.60;99.90;;;;;;5049028;28;20196;-73
2021/12/22 00:19:22;;;;;;;10.27;6.28;;;0.50;99.90;;;;;;5043993;28;20224;-74
2021/12/22 00:21:48;;;;;;;16.08;8.18;;;0.50;99.90;;;;;;5029413;28;20162;-73
2021/12/22 00:24:14;;;;;;;16.55;7.15;;;0.50;99.90;;;;;;5029840;28;20264;-73
2021/12/22 00:26:40;;;;;;;12.32;7.32;;;0.50;99.90;;;;;;5046241;28;20201;-74
2021/12/22 00:29:08;;;;;;;16.27;8.15;;;0.50;99.90;;;;;;5048006;28;20190;-73
2021/12/22 00:31:41;;;;;;;13.02;7.25;;;0.50;99.90;;;;;;5048603;28;20189;-73
2021/12/22 00:34:16;;;;;;;17.98;7.28;;;0.50;99.90;;;;;;5048897;28;20252;-73
2021/12/22 00:36:42;;;;;;;12.80;7.47;;;0.50;99.90;;;;;;5049007;28;20211;-73
2021/12/22 00:39:08;;;;;;;16.17;7.53;;;0.50;99.90;;;;;;5048651;28;20173;-73
2021/12/22 00:41:34;;;;;;;20.98;7.53;;;0.50;99.90;;;;;;5051960;28;20192;-73
2021/12/22 00:44:00;;;;;;;8.45;6.47;;;0.50;99.90;;;;;;5052879;28;20220;-73
2021/12/22 00:46:26;;;;;;;13.25;7.10;;;0.50;99.90;;;;;;5052927;28;20196;-74
2021/12/22 00:48:52;;;;;;;14.32;6.72;;;0.50;99.90;;;;;;5051418;28;20678;-73
2021/12/22 00:51:18;;;;;;;9.35;5.25;;;0.50;99.90;;;;;;5052648;28;20279;-73
2021/12/22 00:53:44;;;;;;;9.20;5.22;;;0.50;99.90;;;;;;5052822;28;20193;-73
2021/12/22 00:56:10;;;;;;;8.35;4.90;;;0.50;99.90;;;;;;5052684;28;20174;-73
2021/12/22 00:58:36;;;;;;;8.15;4.80;;;0.60;99.90;;;;;;5051965;28;20165;-73
2021/12/22 01:01:03;;;;;;;10.00;4.53;;;0.70;99.90;;;;;;5032823;28;20643;-73
2021/12/22 01:03:29;;;;;;;8.80;4.93;;;0.70;99.90;;;;;;5032636;28;20189;-73
2021/12/22 01:05:55;;;;;;;5.85;3.95;;;0.70;99.90;;;;;;5014919;28;20209;-73
2021/12/22 01:08:21;;;;;;;4.82;3.58;;;0.70;99.90;;;;;;5032640;28;20166;-73
2021/12/22 01:10:47;;;;;;;5.70;3.95;;;0.70;99.90;;;;;;5032407;28;20185;-73
2021/12/22 01:13:15;;;;;;;8.60;4.97;;;0.70;99.90;;;;;;5032510;28;20163;-73
2021/12/22 01:15:41;;;;;;;8.65;4.30;;;0.70;99.90;;;;;;5032277;28;20193;-73
2021/12/22 01:18:15;;;;;;;6.43;3.25;;;0.70;99.90;;;;;;5032409;28;20185;-74
2021/12/22 01:23:59;;;;;;;5.55;3.72;;;0.70;99.90;;;;;;5009626;28;20190;-73
2021/12/22 01:26:31;;;;;;;8.55;4.18;;;0.60;99.90;;;;;;5032402;28;20162;-73
2021/12/22 01:28:57;;;;;;;8.02;4.50;;;0.60;99.90;;;;;;5032235;28;20177;-73
2021/12/22 01:31:24;;;;;;;6.47;3.80;;;0.60;99.90;;;;;;5032152;28;20201;-73
2021/12/22 01:33:50;;;;;;;10.45;4.90;;;0.60;99.90;;;;;;5032084;28;20182;-73
2021/12/22 01:36:16;;;;;;;5.38;4.00;;;0.50;99.90;;;;;;5014390;28;20206;-73
2021/12/22 01:38:42;;;;;;;16.80;4.68;;;0.60;99.90;;;;;;5032110;28;20165;-73
2021/12/22 01:41:08;;;;;;;10.15;5.05;;;0.60;99.90;;;;;;5032054;28;20654;-73
2021/12/22 01:43:34;;;;;;;6.53;3.78;;;0.60;99.90;;;;;;5014200;28;20181;-73
2021/12/22 01:51:28;;;;;;;7.97;5.13;;;0.50;99.90;;;;;;5031350;28;20297;-74
2021/12/22 01:54:01;;;;;;;15.00;6.53;;;0.60;99.90;;;;;;5013550;28;20702;-74
2021/12/22 01:56:29;;;;;;;17.73;7.35;;;0.70;99.90;;;;;;5031890;28;20154;-74
2021/12/22 01:59:02;;;;;;;10.25;6.35;;;0.70;99.90;;;;;;5031480;28;20244;-73
2021/12/22 02:01:31;;;;;;;11.32;6.47;;;0.80;99.90;;;;;;5031555;28;20162;-73
2021/12/22 02:03:57;;;;;;;10.73;6.35;;;0.80;99.90;;;;;;5031372;28;20285;-73
2021/12/22 02:06:23;;;;;;;11.13;5.70;;;0.70;99.90;;;;;;5031261;28;20177;-74
2021/12/22 02:08:51;;;;;;;11.80;5.90;;;0.70;99.90;;;;;;5031182;28;20162;-73
2021/12/22 02:11:18;;;;;;;12.60;6.00;;;0.60;99.90;;;;;;5031261;28;20335;-73
2021/12/22 02:13:49;;;;;;;14.20;6.45;;;0.60;99.90;;;;;;5031413;28;20193;-73
2021/12/22 02:16:16;;;;;;;12.15;7.60;;;0.50;99.90;;;;;;5031368;28;20158;-73
2021/12/22 02:18:48;;;;;;;11.35;5.93;;;0.50;99.90;;;;;;5031331;28;20155;-73
2021/12/22 02:21:16;;;;;;;10.32;6.18;;;0.40;99.90;;;;;;5031211;28;20169;-73
2021/12/22 02:23:43;;;;;;;11.88;6.03;;;0.40;99.90;;;;;;5031113;28;20193;-73
2021/12/22 02:26:18;;;;;;;13.10;6.13;;;0.40;99.90;;;;;;5031099;28;20221;-73
2021/12/22 02:28:48;;;;;;;12.45;6.35;;;0.50;99.90;;;;;;5031108;28;20158;-73
2021/12/22 02:31:18;;;;;;;12.77;7.40;;;0.60;99.90;;;;;;5030996;28;20190;-73
2021/12/22 02:33:48;;;;;;;15.30;7.00;;;0.60;99.90;;;;;;5013283;28;20193;-73
2021/12/22 02:36:23;;;;;;;15.75;7.35;;;0.70;99.90;;;;;;5030900;28;20150;-73
2021/12/22 02:38:58;;;;;;;13.43;7.07;;;0.70;99.90;;;;;;5030934;28;20151;-74
2021/12/22 02:41:28;;;;;;;14.50;6.65;;;0.70;99.90;;;;;;5030855;28;20162;-74
2021/12/22 02:43:56;;;;;;;10.18;6.30;;;0.60;99.90;;;;;;5030838;28;20225;-74
2021/12/22 02:46:29;;;;;;;15.35;7.18;;;0.60;99.90;;;;;;5030804;28;20174;-74
2021/12/22 02:48:57;;;;;;;13.05;7.00;;;0.50;99.90;;;;;;5030573;28;20177;-74
2021/12/22 02:51:24;;;;;;;20.63;7.65;;;0.50;99.90;;;;;;5030443;28;20197;-74
2021/12/22 02:54:13;;;;;;;11.80;6.07;;;0.50;99.90;;;;;;5012810;28;20193;-73
2021/12/22 03:04:51;;;;;;;14.48;7.43;;;0.40;99.90;;;;;;5030083;28;20204;-73
2021/12/22 03:07:19;;;;;;;12.60;6.72;;;0.40;99.90;;;;;;5030195;28;20274;-73
2021/12/22 03:09:52;;;;;;;13.43;7.60;;;0.50;99.90;;;;;;5030181;28;20154;-73
2021/12/22 03:12:18;;;;;;;14.10;7.65;;;0.50;99.90;;;;;;5030236;28;20185;-73
2021/12/22 03:14:44;;;;;;;15.05;6.90;;;0.40;99.90;;;;;;5030143;28;20190;-73
2021/12/22 03:17:10;;;;;;;15.02;7.38;;;0.50;99.90;;;;;;5030046;28;20634;-73
2021/12/22 03:19:36;;;;;;;16.48;6.70;;;0.50;99.90;;;;;;5030145;28;20159;-74
2021/12/22 03:22:07;;;;;;;14.48;6.65;;;0.50;99.90;;;;;;5030035;28;20178;-73
2021/12/22 03:24:36;;;;;;;14.52;7.03;;;0.40;99.90;;;;;;5029993;28;20253;-74
2021/12/22 03:27:03;;;;;;;13.88;7.05;;;0.30;99.90;;;;;;5029925;28;20157;-74
2021/12/22 03:29:33;;;;;;;17.25;7.07;;;0.30;99.90;;;;;;5030007;28;20154;-74
2021/12/22 03:31:59;;;;;;;20.95;7.43;;;0.40;99.90;;;;;;5029679;28;20190;-73
2021/12/22 03:34:25;;;;;;;13.93;6.43;;;0.40;99.90;;;;;;5029692;28;20220;-73
2021/12/22 03:36:52;;;;;;;10.32;6.85;;;0.40;99.90;;;;;;5029837;28;20209;-72
2021/12/22 03:39:18;;;;;;;15.48;6.68;;;0.50;99.90;;;;;;5029565;28;20154;-72
2021/12/22 03:41:46;;;;;;;13.43;6.43;;;0.50;99.90;;;;;;5029468;28;20169;-73
2021/12/22 03:44:12;;;;;;;12.00;6.10;;;0.40;99.90;;;;;;5029529;28;20189;-72
2021/12/22 03:46:40;;;;;;;10.52;6.60;;;0.40;99.90;;;;;;5029531;28;20163;-72
2021/12/22 03:49:09;;;;;;;9.13;5.63;;;0.50;99.90;;;;;;5029504;28;20162;-72
2021/12/22 03:51:36;;;;;;;16.35;7.43;;;0.60;99.90;;;;;;5029495;28;20253;-72
2021/12/22 03:54:04;;;;;;;9.20;6.47;;;0.60;99.90;;;;;;5029269;28;20328;-72
2021/12/22 03:56:30;;;;;;;14.18;6.38;;;0.50;99.90;;;;;;5028706;28;20162;-72
2021/12/22 03:58:56;;;;;;;13.38;7.20;;;0.50;99.90;;;;;;5029129;28;20249;-72
2021/12/22 04:01:22;;;;;;;15.85;7.53;;;0.50;99.90;;;;;;5029454;28;20522;-72
2021/12/22 04:03:52;;;;;;;14.23;5.65;;;0.40;99.90;;;;;;5029082;28;20190;-72
2021/12/22 04:06:17;;;;;;;15.35;6.35;;;0.40;99.90;;;;;;5011590;28;20546;-72
2021/12/22 04:08:43;;;;;;;13.63;5.80;;;0.40;99.90;;;;;;5011534;28;20256;-73
2021/12/22 04:11:09;;;;;;;11.20;5.97;;;0.40;99.90;;;;;;5029033;28;20194;-72
2021/12/22 04:13:35;;;;;;;9.45;4.88;;;0.40;99.90;;;;;;5029068;28;20158;-72
2021/12/22 04:16:01;;;;;;;7.93;4.68;;;0.50;99.90;;;;;;5010844;28;20189;-72
2021/12/22 04:18:27;;;;;;;7.65;4.38;;;0.60;99.90;;;;;;5028959;28;20169;-73
2021/12/22 04:20:56;;;;;;;6.40;4.25;;;0.50;99.90;;;;;;5029111;28;20165;-73
2021/12/22 04:23:22;;;;;;;8.15;4.90;;;0.60;99.90;;;;;;5011227;28;20174;-73
2021/12/22 04:25:48;;;;;;;6.72;4.65;;;0.70;99.90;;;;;;5011332;28;20643;-73
2021/12/22 04:28:15;;;;;;;14.60;5.13;;;0.70;99.90;;;;;;5028936;28;20476;-72
2021/12/22 04:30:45;;;;;;;6.43;4.43;;;0.70;99.90;;;;;;5029027;28;20200;-72
2021/12/22 04:33:11;;;;;;;10.90;5.30;;;0.70;99.90;;;;;;5029050;28;20214;-72
2021/12/22 04:35:37;;;;;;;8.75;4.80;;;0.80;99.90;;;;;;5028817;28;20189;-74
2021/12/22 04:38:04;;;;;;;13.65;5.10;;;0.80;99.90;;;;;;5029065;28;20158;-74
2021/12/22 04:40:30;;;;;;;8.43;5.05;;;0.80;99.90;;;;;;5010989;28;20196;-74
2021/12/22 04:42:56;;;;;;;8.98;4.78;;;0.70;99.90;;;;;;5028567;28;20165;-74
2021/12/22 04:45:22;;;;;;;9.27;5.25;;;0.70;99.90;;;;;;5028704;28;20198;-73
2021/12/22 04:47:50;;;;;;;10.25;5.15;;;0.60;99.90;;;;;;5027764;28;20181;-73
2021/12/22 04:50:21;;;;;;;10.30;5.18;;;0.50;99.90;;;;;;5028561;28;20235;-73
2021/12/22 04:52:57;;;;;;;8.05;5.22;;;0.50;99.90;;;;;;5027167;28;20170;-74
2021/12/22 04:55:27;;;;;;;7.95;5.22;;;0.50;99.90;;;;;;5025150;28;20209;-73
2021/12/22 04:57:55;;;;;;;10.20;5.10;;;0.60;99.90;;;;;;5027894;28;20181;-74
2021/12/22 05:00:23;;;;;;;10.55;5.07;;;0.60;99.90;;;;;;5027511;28;20221;-74
2021/12/22 05:02:49;;;;;;;22.67;6.03;;;0.60;99.90;;;;;;5027230;28;20190;-75
2021/12/22 05:05:15;;;;;;;9.88;5.53;;;0.60;99.90;;;;;;5027785;28;20206;-74
2021/12/22 05:07:43;;;;;;;10.00;5.78;;;0.60;99.90;;;;;;5028092;28;20273;-73
2021/12/22 05:10:11;;;;;;;8.70;6.00;;;0.60;99.90;;;;;;5027799;28;20213;-74
2021/12/22 05:12:37;;;;;;;18.58;6.45;;;0.70;99.90;;;;;;5028578;28;20549;-73
2021/12/22 05:15:04;;;;;;;10.45;6.03;;;0.70;99.90;;;;;;5027995;28;20237;-73
2021/12/22 05:18:48;;;;;;;13.73;6.00;;;0.80;99.90;;;;;;5027781;28;20178;-73
2021/12/22 05:20:26;;;;;;;11.55;6.53;;;0.80;99.90;;;;;;5008412;28;20202;-74
2021/12/22 05:22:53;;;;;;;11.20;5.88;;;0.90;99.90;;;;;;5024171;28;20174;-74
2021/12/22 05:25:19;;;;;;;14.75;5.63;;;0.90;99.90;;;;;;5009232;28;20212;-73
2021/12/22 05:27:45;;;;;;;11.82;6.07;;;0.90;99.90;;;;;;5030509;28;20194;-74
2021/12/22 05:30:13;;;;;;;11.95;6.15;;;0.90;99.90;;;;;;5031366;28;20252;-75
2021/12/22 05:32:40;;;;;;;10.82;6.22;;;0.90;99.90;;;;;;5031727;28;20162;-73
2021/12/22 05:35:10;;;;;;;11.38;5.95;;;0.80;99.90;;;;;;5031779;28;20687;-75
2021/12/22 05:37:36;;;;;;;13.05;6.72;;;0.70;99.90;;;;;;5031871;28;20259;-75
2021/12/22 05:40:05;;;;;;;17.00;7.07;;;0.60;99.90;;;;;;5031773;28;20154;-74
2021/12/22 05:42:31;;;;;;;11.48;6.97;;;0.50;99.90;;;;;;5031699;28;20184;-75
2021/12/22 05:44:56;;;;;;;11.65;5.50;;;0.50;99.90;;;;;;5031831;28;20194;-73
2021/12/22 05:47:22;;;;;;;14.52;7.18;;;0.40;99.90;;;;;;5013690;28;20166;-74
2021/12/22 05:49:49;;;;;;;11.60;5.97;;;0.40;99.90;;;;;;5031612;28;20166;-73
2021/12/22 05:52:16;;;;;;;18.35;7.70;;;0.40;99.90;;;;;;5031200;28;20209;-74
2021/12/22 05:54:42;;;;;;;12.55;6.05;;;0.40;99.90;;;;;;5031267;28;20214;-73
2021/12/22 05:57:08;;;;;;;19.45;6.72;;;0.40;99.90;;;;;;5013657;28;20173;-73
2021/12/22 05:59:34;;;;;;;12.50;6.60;;;0.30;99.90;;;;;;5026494;28;20217;-73
2021/12/22 06:02:00;;;;;;;9.70;5.13;;;0.40;99.90;;;;;;5051082;28;20183;-73
2021/12/22 06:04:26;;;;;;;7.70;4.90;;;0.30;99.90;;;;;;5050640;28;20216;-73
2021/12/22 06:06:52;;;;;;;8.77;4.22;;;0.40;99.90;;;;;;5050580;28;20532;-75
2021/12/22 06:09:17;;;;;;;7.20;4.70;;;0.40;99.90;;;;;;5050634;28;20189;-75
2021/12/22 06:11:43;;;;;;;9.75;5.20;;;0.40;99.90;;;;;;5050528;28;20249;-74
2021/12/22 06:14:09;;;;;;;9.63;4.60;;;0.50;99.90;;;;;;5045971;28;20201;-73
2021/12/22 06:16:35;;;;;;;6.78;3.97;;;0.50;99.90;;;;;;5030766;28;20154;-73
2021/12/22 06:19:04;;;;;;;6.35;4.55;;;0.50;99.90;;;;;;5044296;28;20184;-73
2021/12/22 06:21:31;;;;;;;7.00;4.28;;;0.40;99.90;;;;;;5050784;28;20150;-73
2021/12/22 06:23:57;;;;;;;7.53;5.22;;;0.40;99.90;;;;;;5050110;28;20205;-73
2021/12/22 06:26:23;;;;;;;9.40;4.25;;;0.40;99.90;;;;;;5050205;28;20225;-75
2021/12/22 06:28:50;;;;;;;6.80;3.67;;;0.50;99.90;;;;;;5050239;28;20241;-75
2021/12/22 06:31:16;;;;;;;7.45;4.30;;;0.40;99.90;;;;;;5050448;28;20261;-74
2021/12/22 06:33:42;;;;;;;9.15;3.28;;;0.40;99.90;;;;;;5049603;28;20232;-75
2021/12/22 06:36:08;;;;;;;3.75;3.38;;;0.40;99.90;;;;;;5050208;28;20233;-74
2021/12/22 06:38:35;;;;;;;7.97;3.78;;;0.40;99.90;;;;;;5049331;28;20156;-74
2021/12/22 06:41:02;;;;;;;12.52;3.90;;;0.40;99.90;;;;;;5050107;28;20229;-74
2021/12/22 06:43:29;;;;;;;4.68;3.30;;;0.40;99.90;;;;;;5050158;28;20172;-74
2021/12/22 06:45:55;;;;;;;8.98;3.88;;;0.40;99.90;;;;;;5050188;28;20162;-75
2021/12/22 06:48:21;;;;;;;5.47;4.22;;;0.30;99.90;;;;;;5048635;28;20169;-75
2021/12/22 06:50:47;;;;;;;5.75;3.50;;;0.30;99.90;;;;;;5049895;28;20200;-74
2021/12/22 06:53:13;;;;;;;15.27;4.13;;;0.30;99.90;;;;;;5049778;28;20189;-74
2021/12/22 06:55:39;;;;;;;14.43;6.78;;;0.30;99.90;;;;;;5049627;28;20201;-74
2021/12/22 06:58:05;;;;;;;9.65;5.80;;;0.30;99.90;;;;;;5049638;28;20157;-74
2021/12/22 07:00:31;;;;;;;9.23;5.70;;;0.30;99.90;;;;;;5033395;28;20222;-75
2021/12/22 07:02:58;;;;;;;9.70;5.57;;;0.40;99.90;;;;;;5029973;28;20237;-76
2021/12/22 07:05:25;;;;;;;14.10;6.72;;;0.30;99.90;;;;;;5029978;28;20261;-76
2021/12/22 07:07:51;;;;;;;8.00;4.45;;;0.40;99.90;;;;;;5029788;28;20530;-75
2021/12/22 07:10:18;;;;;;;14.32;6.13;;;0.40;99.90;;;;;;5029855;28;20244;-74
2021/12/22 07:12:48;;;;;;;9.23;4.90;;;0.40;99.90;;;;;;5011957;28;20173;-75
2021/12/22 07:15:16;;;;;;;17.98;4.32;;;0.40;99.90;;;;;;5029485;28;20272;-75
2021/12/22 07:17:44;;;;;;;8.40;4.63;;;0.40;99.90;;;;;;5029997;28;20158;-75
2021/12/22 07:20:11;;;;;;;6.80;4.38;;;0.40;99.90;;;;;;5012069;28;20182;-75
2021/12/22 07:22:37;;;;;;;7.10;4.88;;;0.40;99.90;;;;;;5012015;28;20222;-74
2021/12/22 07:25:05;;;;;;;6.72;3.70;;;0.40;99.90;;;;;;5029699;28;20196;-75
2021/12/22 07:27:31;;;;;;;9.27;5.78;;;0.40;99.90;;;;;;5029718;28;20162;-75
2021/12/22 07:29:57;;;;;;;12.35;4.10;;;0.50;99.90;;;;;;5029555;28;20272;-75
2021/12/22 07:32:23;;;;;;;8.48;2.92;;;0.40;99.90;;;;;;5029269;28;20169;-76
2021/12/22 07:34:55;;;;;;;9.45;4.32;;;0.50;99.90;;;;;;5017022;28;20209;-75
2021/12/22 07:37:37;;;;;;;7.00;3.67;;;0.50;99.90;;;;;;5014201;28;20188;-75
2021/12/22 07:40:08;;;;;;;6.57;3.75;;;0.50;99.90;;;;;;5029301;28;20154;-75
2021/12/22 07:42:34;;;;;;;8.05;4.47;;;0.60;99.90;;;;;;5029541;28;20222;-75
2021/12/22 07:45:00;;;;;;;8.98;4.50;;;0.60;99.90;;;;;;5029385;28;20194;-75
2021/12/22 07:47:26;;;;;;;12.63;5.43;;;0.60;99.90;;;;;;5029530;28;20158;-75
2021/12/22 07:49:52;;;;;;;15.43;5.07;;;0.60;99.90;;;;;;5010842;28;20168;-75
2021/12/22 07:52:18;;;;;;;5.88;3.13;;;0.60;99.90;;;;;;5029093;28;20229;-75
2021/12/22 07:54:44;;;;;;;7.72;4.03;;;0.60;99.90;;;;;;5011835;28;20190;-75
2021/12/22 07:57:10;;;;;;;6.18;3.85;;;0.60;99.90;;;;;;5011715;28;20161;-75
2021/12/22 07:59:36;;;;;;;8.73;4.35;;;0.60;99.90;;;;;;5028755;28;20221;-75
2021/12/22 08:02:02;;;;;;;9.30;4.00;;;0.70;99.90;;;;;;5028750;28;20256;-74
2021/12/22 08:04:29;;;;;;;8.57;4.97;;;0.80;99.90;;;;;;5028985;28;20263;-75
2021/12/22 08:06:55;;;;;;;11.13;4.18;;;0.80;99.90;;;;;;5029052;28;20162;-75
2021/12/22 08:09:25;;;;;;;10.38;4.13;;;0.80;99.90;;;;;;5029119;28;20168;-74
2021/12/22 08:11:53;;;;;;;10.60;3.60;;;0.80;99.90;;;;;;5028855;28;20189;-74
2021/12/22 08:14:22;;;;;;;5.78;3.97;;;0.80;99.90;;;;;;5011039;28;20206;-74
2021/12/22 08:16:52;;;;;;;8.25;4.18;;;0.80;99.90;;;;;;5028720;28;20157;-75
2021/12/22 08:19:18;;;;;;;12.75;5.20;;;0.80;99.90;;;;;;5028947;28;20158;-75
2021/12/22 08:21:44;;;;;;;7.63;4.05;;;0.80;99.90;;;;;;5028946;28;20169;-75
2021/12/22 08:24:11;;;;;;;9.70;4.05;;;0.90;99.90;;;;;;5028551;28;20269;-74
2021/12/22 08:26:37;;;;;;;8.25;4.03;;;1.00;99.90;;;;;;5027179;28;20205;-74
2021/12/22 08:29:03;;;;;;;6.90;3.72;;;1.00;99.90;;;;;;5010844;28;20245;-75
2021/12/22 08:31:29;;;;;;;6.55;3.80;;;1.10;99.90;;;;;;5028048;28;20729;-74
2021/12/22 08:33:55;;;;;;;9.95;4.60;;;1.20;99.90;;;;;;5008795;28;20197;-75
2021/12/22 08:39:09;;;;;;;14.45;4.50;;;1.10;99.90;;;;;;5028991;28;20177;-75
2021/12/22 08:41:40;;;;;;;10.40;4.47;;;1.10;99.90;;;;;;5028745;28;20162;-75
2021/12/22 08:44:09;;;;;;;6.22;3.30;;;1.30;99.90;;;;;;5009848;28;20553;-75
2021/12/22 08:46:38;;;;;;;9.45;4.38;;;1.30;99.90;;;;;;5027068;28;20347;-76
2021/12/22 08:49:06;;;;;;;9.68;4.03;;;1.30;99.90;;;;;;5008422;28;20274;-75
2021/12/22 08:51:32;;;;;;;7.90;3.97;;;1.50;99.90;;;;;;5027016;28;20217;-75
2021/12/22 08:54:00;;;;;;;9.85;4.60;;;1.60;99.90;;;;;;5018860;28;20679;-74
2021/12/22 08:56:27;;;;;;;10.05;4.72;;;1.60;99.90;;;;;;5020631;28;20651;-74
2021/12/22 08:58:54;;;;;;;8.13;3.72;;;1.70;99.90;;;;;;5028413;28;20178;-74
2021/12/22 09:01:21;;;;;;;6.80;4.80;;;1.60;99.90;;;;;;5024610;28;20170;-74
2021/12/22 09:03:47;;;;;;;5.72;3.80;;;1.60;99.90;;;;;;5005095;28;20266;-73
2021/12/22 09:06:13;;;;;;;13.93;4.43;;;1.50;99.90;;;;;;5012216;28;20159;-75
2021/12/22 09:08:41;;;;;;;5.28;3.92;;;1.60;99.90;;;;;;5019405;28;20162;-75
2021/12/22 09:11:07;;;;;;;8.20;4.28;;;1.70;99.90;;;;;;5014336;28;20209;-75
2021/12/22 09:13:35;;;;;;;12.95;4.55;;;1.70;99.90;;;;;;5014309;28;20189;-74
2021/12/22 09:16:02;;;;;;;11.80;4.40;;;1.80;99.90;;;;;;5014294;28;20177;-74
2021/12/22 09:18:28;;;;;;;16.92;4.57;;;2.00;99.90;;;;;;5032036;28;20162;-75
2021/12/22 09:20:54;;;;;;;6.65;4.03;;;2.00;99.90;;;;;;5032141;28;20159;-74
2021/12/22 09:23:20;;;;;;;8.95;4.82;;;2.00;99.90;;;;;;5031982;28;20177;-75
2021/12/22 09:25:46;;;;;;;6.60;4.68;;;2.10;99.90;;;;;;5025188;28;20788;-74
2021/12/22 09:28:13;;;;;;;6.53;4.72;;;2.10;99.90;;;;;;5009972;28;20558;-74
2021/12/22 09:30:43;;;;;;;6.88;4.55;;;2.00;99.90;;;;;;5010823;28;20245;-74
2021/12/22 09:33:11;;;;;;;12.43;5.00;;;2.10;99.90;;;;;;5012141;28;20155;-74
2021/12/22 09:35:38;;;;;;;10.38;5.05;;;2.10;99.90;;;;;;5012148;28;20197;-73
2021/12/22 09:38:06;;;;;;;8.63;4.65;;;1.90;99.90;;;;;;5012053;28;20163;-74
2021/12/22 09:40:32;;;;;;;6.80;3.95;;;2.00;99.90;;;;;;5012204;28;20222;-74
2021/12/22 09:42:58;;;;;;;7.35;3.78;;;1.90;99.90;;;;;;5012104;28;20166;-74
2021/12/22 09:45:26;;;;;;;6.05;3.78;;;1.80;99.90;;;;;;5011946;28;20274;-75
2021/12/22 09:53:14;;;;;;;6.95;4.18;;;1.80;99.90;;;;;;5011977;28;20214;-77
2021/12/22 09:55:41;;;;;;;6.28;3.75;;;2.00;99.90;;;;;;5010580;28;20198;-76
2021/12/22 09:58:09;;;;;;;7.53;4.50;;;2.20;99.90;;;;;;5011782;28;20158;-76
2021/12/22 10:00:36;;;;;;;7.47;3.78;;;2.20;99.90;;;;;;5023713;28;20252;-74
2021/12/22 10:03:07;;;;;;;14.13;3.85;;;2.10;99.90;;;;;;5031354;28;20166;-74
2021/12/22 10:05:37;;;;;;;6.15;4.00;;;2.20;99.90;;;;;;5031310;28;20198;-76
2021/12/22 10:08:11;;;;;;;6.25;3.50;;;2.20;99.90;;;;;;5013592;28;20178;-74
2021/12/22 10:10:40;;;;;;;4.88;3.58;;;2.30;99.90;;;;;;5030802;28;20209;-76
2021/12/22 10:13:12;;;;;;;10.35;4.32;;;2.30;99.90;;;;;;5028845;28;20185;-76
2021/12/22 10:15:39;;;;;;;7.25;4.30;;;2.30;99.90;;;;;;5031014;28;20261;-77
2021/12/22 10:18:14;;;;;;;8.45;3.80;;;2.40;99.90;;;;;;5013392;28;20276;-75
2021/12/22 10:20:42;;;;;;;5.68;3.70;;;2.30;99.90;;;;;;5030789;28;20158;-77
2021/12/22 10:23:29;;;;;;;6.45;4.10;;;2.40;99.90;;;;;;5030547;28;20162;-75
2021/12/22 10:25:56;;;;;;;10.07;3.88;;;2.40;99.90;;;;;;5013060;28;20174;-75
2021/12/22 10:28:24;;;;;;;5.45;3.95;;;2.20;99.90;;;;;;5030615;28;20189;-75
2021/12/22 10:30:56;;;;;;;5.20;4.40;;;2.10;99.90;;;;;;5029708;28;20201;-76
2021/12/22 10:33:27;;;;;;;12.32;4.90;;;2.00;99.90;;;;;;5030424;28;20192;-76
2021/12/22 10:35:56;;;;;;;8.13;3.72;;;2.00;99.90;;;;;;5030365;28;20174;-75
2021/12/22 10:38:25;;;;;;;5.80;4.03;;;2.00;99.90;;;;;;5030296;28;20602;-75
2021/12/22 10:40:54;;;;;;;8.05;3.47;;;2.00;99.90;;;;;;5030356;28;20189;-75
2021/12/22 10:43:24;;;;;;;13.15;4.38;;;2.00;99.90;;;;;;5028933;28;20162;-76
2021/12/22 10:45:56;;;;;;;9.10;3.88;;;2.00;99.90;;;;;;5030334;28;20253;-76
2021/12/22 10:51:20;;;;;;;11.57;3.88;;;1.80;99.90;;;;;;5030299;28;20239;-75
2021/12/22 10:53:49;;;;;;;9.48;4.28;;;2.00;99.90;;;;;;5030097;28;20159;-75
2021/12/22 10:56:33;;;;;;;12.63;4.65;;;2.20;99.90;;;;;;5012616;28;20170;-74
2021/12/22 10:59:05;;;;;;;5.15;3.85;;;2.30;99.90;;;;;;5015692;28;20228;-74
2021/12/22 11:01:34;;;;;;;6.60;3.92;;;2.50;99.90;;;;;;5049702;28;20173;-74
2021/12/22 11:04:06;;;;;;;5.38;4.35;;;2.50;99.90;;;;;;5049996;28;20213;-74
2021/12/22 11:06:37;;;;;;;6.68;4.40;;;2.40;99.90;;;;;;5049885;28;20149;-73
2021/12/22 11:09:23;;;;;;;10.00;5.32;;;2.50;99.90;;;;;;5049765;28;20161;-74
2021/12/22 11:11:55;;;;;;;6.13;4.65;;;2.50;99.90;;;;;;5048651;28;20681;-75
2021/12/22 11:14:27;;;;;;;5.95;4.40;;;2.40;99.90;;;;;;5048279;28;20194;-75
2021/12/22 11:17:02;;;;;;;7.88;4.28;;;2.30;99.90;;;;;;5049828;28;20524;-74
2021/12/22 11:19:53;;;;;;;5.03;3.72;;;2.30;99.90;;;;;;5049664;28;20224;-75
2021/12/22 11:22:26;;;;;;;7.05;4.25;;;2.40;99.90;;;;;;5049663;28;20248;-74
2021/12/22 11:24:55;;;;;;;9.93;5.18;;;2.40;99.90;;;;;;5049485;28;20211;-77
2021/12/22 11:27:24;;;;;;;7.05;4.82;;;2.30;99.90;;;;;;5049552;28;20158;-75
2021/12/22 11:29:54;;;;;;;12.45;4.47;;;2.40;99.90;;;;;;5049609;28;20168;-72
2021/12/22 11:32:28;;;;;;;8.30;3.15;;;2.40;99.90;;;;;;5049434;28;20193;-72
2021/12/22 11:34:57;;;;;;;7.15;4.40;;;2.30;99.90;;;;;;5049177;28;20185;-74
2021/12/22 11:37:24;;;;;;;15.25;5.15;;;2.20;99.90;;;;;;5045159;28;20185;-75
2021/12/22 11:39:52;;;;;;;5.75;4.22;;;2.30;99.90;;;;;;5048576;28;20275;-75
2021/12/22 11:42:20;;;;;;;10.40;4.72;;;2.30;99.90;;;;;;5048655;28;20165;-74
2021/12/22 11:44:51;;;;;;;18.92;5.85;;;2.30;99.90;;;;;;5048825;28;20197;-75
2021/12/22 11:47:17;;;;;;;7.93;4.75;;;2.40;99.90;;;;;;5048101;28;20176;-75
2021/12/22 11:49:58;;;;;;;11.98;4.57;;;2.30;99.90;;;;;;5049237;28;20161;-75
2021/12/22 11:52:30;;;;;;;8.75;4.80;;;2.10;99.90;;;;;;5049012;28;20181;-75
2021/12/22 11:55:11;;;;;;;9.77;4.93;;;2.10;99.90;;;;;;5041849;28;20654;-75
2021/12/22 11:57:38;;;;;;;11.95;4.72;;;2.00;99.90;;;;;;5029282;28;20161;-75
2021/12/22 12:00:30;;;;;;;10.27;4.40;;;2.00;99.90;;;;;;5037532;28;20276;-75
2021/12/22 12:03:16;;;;;;;10.13;5.80;;;2.10;99.90;;;;;;5049463;28;20161;-75
2021/12/22 12:06:02;;;;;;;11.55;4.22;;;2.20;99.90;;;;;;5050502;28;20232;-75
2021/12/22 12:08:41;;;;;;;7.90;5.15;;;2.20;99.90;;;;;;5032708;28;20220;-75
2021/12/22 12:11:10;;;;;;;6.45;4.38;;;2.00;99.90;;;;;;4992253;28;20202;-75
2021/12/22 12:22:33;;;;;;;16.23;5.80;;;2.10;99.90;;;;;;5009146;28;20190;-75
2021/12/22 12:25:14;;;;;;;9.77;4.85;;;2.20;99.90;;;;;;4991599;28;20297;-75
2021/12/22 12:27:44;;;;;;;9.98;5.38;;;2.20;99.90;;;;;;5009297;28;20185;-75
2021/12/22 12:30:21;;;;;;;12.40;5.25;;;2.20;99.90;;;;;;5008995;28;20181;-75
2021/12/22 12:32:49;;;;;;;11.18;5.97;;;2.40;99.90;;;;;;5026644;28;20161;-75
2021/12/22 12:35:21;;;;;;;7.53;5.45;;;2.30;99.90;;;;;;5028547;28;20217;-75
2021/12/22 12:38:07;;;;;;;9.82;5.50;;;2.30;99.90;;;;;;5014265;28;20201;-75
2021/12/22 12:40:55;;;;;;;18.05;6.32;;;2.10;99.90;;;;;;5013193;28;20163;-74
2021/12/22 12:46:24;;;;;;;8.05;5.00;;;2.40;99.90;;;;;;5013320;28;20166;-74
2021/12/22 12:48:56;;;;;;;12.32;5.90;;;2.30;99.90;;;;;;5012908;28;20173;-76
2021/12/22 12:51:25;;;;;;;13.77;6.13;;;2.20;99.90;;;;;;4995383;28;20217;-75
2021/12/22 12:53:54;;;;;;;10.70;6.18;;;2.10;99.90;;;;;;5012745;28;20536;-75
2021/12/22 12:56:23;;;;;;;10.88;5.03;;;2.20;99.90;;;;;;5012834;28;20178;-75
2021/12/22 12:58:55;;;;;;;11.07;4.57;;;2.20;99.90;;;;;;4995026;28;20185;-75
2021/12/22 13:01:53;;;;;;;10.68;4.82;;;1.90;99.90;;;;;;5031263;28;20166;-75
2021/12/22 13:04:29;;;;;;;13.15;4.78;;;1.90;99.90;;;;;;4933457;29;20213;-75
2021/12/22 13:07:01;;;;;;;15.90;5.05;;;1.90;99.90;;;;;;4933680;29;20189;-75
2021/12/22 13:09:28;;;;;;;15.40;5.75;;;2.00;99.90;;;;;;4933623;29;20173;-75
2021/12/22 13:17:42;;;;;;;13.23;4.53;;;2.10;99.90;;;;;;4933021;29;20178;-75
2021/12/22 13:20:11;;;;;;;13.45;5.22;;;2.10;99.90;;;;;;4932987;29;20193;-75
2021/12/22 13:22:39;;;;;;;8.50;4.22;;;2.10;99.90;;;;;;4933106;29;20208;-75
2021/12/22 13:25:21;;;;;;;9.20;4.97;;;2.10;99.90;;;;;;4932954;29;20217;-75
2021/12/22 13:27:54;;;;;;;8.23;3.90;;;2.00;99.90;;;;;;4932988;29;20190;-75
2021/12/22 13:30:26;;;;;;;6.88;4.07;;;2.00;99.90;;;;;;4932873;29;20162;-75
2021/12/22 13:33:13;;;;;;;10.52;5.38;;;1.90;99.90;;;;;;4932762;29;20192;-75
2021/12/22 13:35:43;;;;;;;12.30;4.43;;;1.90;99.90;;;;;;4932163;29;20201;-75
2021/12/22 13:38:20;;;;;;;22.00;8.73;;;1.80;99.90;;;;;;4932949;29;20201;-75
2021/12/22 13:41:06;;;;;;;8.20;4.63;;;1.80;99.90;;;;;;5017993;28;20185;-75
2021/12/22 13:43:37;;;;;;;5.85;3.90;;;1.70;99.90;;;;;;5021148;28;20190;-75
2021/12/22 13:46:11;;;;;;;28.48;10.45;;;1.40;99.90;;;;;;5031570;28;20546;-74
2021/12/22 13:48:41;;;;;;;22.05;8.45;;;1.30;99.90;;;;;;5030077;28;20161;-75